createdAt,value
2023-03-12T00:01:22.485Z,99037.08
2023-03-12T00:03:52.600Z,99037.11
2023-03-12T00:06:22.372Z,99038.03
2023-03-12T00:08:51.759Z,99035.71
2023-03-12T00:11:22.244Z,99028.80
2023-03-12T00:13:53.284Z,99027.08
2023-03-12T00:16:25.849Z,99031.05
2023-03-12T00:18:56.536Z,99027.55
2023-03-12T00:21:26.700Z,99027.45
2023-03-12T00:23:55.773Z,99024.11
2023-03-12T00:26:24.831Z,99027.66
2023-03-12T00:28:54.324Z,99029.14
2023-03-12T00:31:28.252Z,99025.89
2023-03-12T00:33:57.892Z,99026.40
2023-03-12T00:36:29.978Z,99019.83
2023-03-12T00:39:01.219Z,99016.52
2023-03-12T00:41:30.680Z,99015.44
2023-03-12T00:43:59.602Z,99013.60
2023-03-12T00:46:28.796Z,99010.77
2023-03-12T00:48:58.205Z,99013.94
2023-03-12T00:51:27.361Z,99008.89
2023-03-12T00:53:56.848Z,99007.16
2023-03-12T00:56:27.377Z,99006.14
2023-03-12T00:58:57.132Z,99002.83
2023-03-12T03:02:33.973Z,98990.23
2023-03-12T03:05:03.527Z,98993.64
2023-03-12T03:07:32.808Z,98994.40
2023-03-12T03:10:05.599Z,98994.95
2023-03-12T03:12:36.950Z,98993.62
2023-03-12T03:15:07.191Z,98994.95
2023-03-12T03:17:36.442Z,99002.11
2023-03-12T03:20:11.826Z,99005.83
2023-03-12T03:22:41.311Z,99007.42
2023-03-12T03:25:11.767Z,99011.65
2023-03-12T03:27:41.109Z,99019.63
2023-03-12T03:30:12.741Z,99016.27
2023-03-12T03:32:44.727Z,99018.95
2023-03-12T03:35:14.479Z,99022.01
2023-03-12T03:37:44.222Z,99028.99
2023-03-12T03:40:16.448Z,99024.45
2023-03-12T03:42:45.315Z,99026.02
2023-03-12T03:45:14.930Z,99021.54
2023-03-12T03:47:44.971Z,99021.35
2023-03-12T03:50:14.596Z,99020.70
2023-03-12T03:52:43.968Z,99026.02
2023-03-12T03:55:13.384Z,99031.73
2023-03-12T03:57:42.949Z,99032.95
2023-03-12T04:00:14.252Z,99032.36
2023-03-12T04:02:45.194Z,99043.05
2023-03-12T04:05:16.885Z,99034.84
2023-03-12T04:07:46.313Z,99035.81
2023-03-12T04:10:16.222Z,99039.25
2023-03-12T04:12:45.319Z,99038.39
2023-03-12T04:15:14.581Z,99037.88
2023-03-12T04:17:44.013Z,99047.83
2023-03-12T04:20:13.099Z,99052.31
2023-03-12T04:22:44.195Z,99062.36
2023-03-12T04:25:13.781Z,99065.64
2023-03-12T04:27:43.211Z,99074.23
2023-03-12T04:30:13.403Z,99072.45
2023-03-12T04:32:42.669Z,99074.62
2023-03-12T04:35:12.070Z,99079.36
2023-03-12T04:37:41.400Z,99075.93
2023-03-12T04:40:11.925Z,99084.53
2023-03-12T04:42:41.280Z,99081.60
2023-03-12T04:45:12.627Z,99078.16
2023-03-12T04:47:45.153Z,99080.06
2023-03-12T04:50:15.815Z,99085.71
2023-03-12T04:52:44.997Z,99095.54
2023-03-12T04:55:14.559Z,99096.66
2023-03-12T04:57:43.380Z,99102.36
2023-03-12T05:00:13.486Z,99106.47
2023-03-12T05:02:42.786Z,99109.61
2023-03-12T05:05:11.915Z,99115.39
2023-03-12T05:07:41.496Z,99116.73
2023-03-12T05:10:11.202Z,99118.93
2023-03-12T05:12:40.183Z,99120.55
2023-03-12T05:15:09.791Z,99115.85
2023-03-12T05:17:38.187Z,99115.15
2023-03-12T05:20:07.411Z,99112.85
2023-03-12T05:22:36.252Z,99108.68
2023-03-12T05:25:06.317Z,99111.40
2023-03-12T05:27:36.541Z,99118.71
2023-03-12T05:30:07.576Z,99122.33
2023-03-12T05:32:38.432Z,99128.52
2023-03-12T05:35:07.685Z,99131.36
2023-03-12T05:37:36.382Z,99135.68
2023-03-12T05:40:05.701Z,99142.16
2023-03-12T05:42:34.436Z,99140.98
2023-03-12T05:45:07.578Z,99135.04
2023-03-12T05:47:37.955Z,99143.12
2023-03-12T05:50:07.611Z,99145.80
2023-03-12T05:52:38.722Z,99150.22
2023-03-12T05:55:08.846Z,99153.39
2023-03-12T05:57:38.070Z,99155.16
2023-03-12T06:00:08.540Z,99157.80
2023-03-12T06:02:46.212Z,99157.52
2023-03-12T06:05:16.548Z,99163.27
2023-03-12T06:07:45.968Z,99159.44
2023-03-12T06:10:15.188Z,99157.80
2023-03-12T06:12:44.583Z,99164.20
2023-03-12T06:15:13.557Z,99163.93
2023-03-12T06:17:43.482Z,99169.41
2023-03-12T06:20:14.187Z,99174.96
2023-03-12T06:22:42.943Z,99183.99
2023-03-12T06:25:12.233Z,99184.02
2023-03-12T06:27:43.716Z,99191.55
2023-03-12T06:30:13.654Z,99195.89
2023-03-12T06:32:43.157Z,99200.31
2023-03-12T06:35:12.369Z,99205.27
2023-03-12T06:37:41.662Z,99216.25
2023-03-12T06:40:12.203Z,99213.39
2023-03-12T06:42:41.570Z,99220.95
2023-03-12T06:45:11.204Z,99225.15
2023-03-12T06:47:40.560Z,99225.48
2023-03-12T06:50:10.043Z,99233.27
2023-03-12T06:52:40.876Z,99234.39
2023-03-12T06:55:11.009Z,99239.02
2023-03-12T06:57:39.433Z,99241.64
2023-03-12T07:00:09.743Z,99242.48
2023-03-12T07:02:39.146Z,99243.41
2023-03-12T07:05:09.090Z,99250.86
2023-03-12T07:07:39.328Z,99254.13
2023-03-12T07:10:11.075Z,99253.58
2023-03-12T07:12:40.672Z,99255.03
2023-03-12T07:15:10.862Z,99253.77
2023-03-12T07:17:40.017Z,99261.67
2023-03-12T07:20:10.386Z,99263.46
2023-03-12T07:22:39.811Z,99262.56
2023-03-12T07:25:10.259Z,99264.01
2023-03-12T07:27:39.386Z,99269.83
2023-03-12T07:30:09.431Z,99267.86
2023-03-12T07:32:37.903Z,99276.06
2023-03-12T07:35:07.573Z,99278.98
2023-03-12T07:37:36.758Z,99276.27
2023-03-12T07:40:08.125Z,99274.79
2023-03-12T07:42:36.769Z,99278.31
2023-03-12T07:45:05.919Z,99281.33
2023-03-12T07:47:34.533Z,99288.10
2023-03-12T07:50:04.364Z,99285.70
2023-03-12T07:52:33.173Z,99287.39
2023-03-12T07:55:02.014Z,99283.80
2023-03-12T07:57:31.334Z,99290.90
2023-03-12T08:00:00.776Z,99293.01
2023-03-12T08:02:29.520Z,99286.98
2023-03-12T08:04:58.672Z,99297.05
2023-03-12T08:07:32.553Z,99300.77
2023-03-12T08:10:03.240Z,99304.24
2023-03-12T08:12:32.504Z,99309.47
2023-03-12T08:15:01.052Z,99307.77
2023-03-12T08:17:29.401Z,99311.89
2023-03-12T08:19:57.814Z,99317.71
2023-03-12T08:22:26.398Z,99320.41
2023-03-12T08:24:55.069Z,99323.46
2023-03-12T08:27:23.637Z,99332.97
2023-03-12T08:29:51.986Z,99347.16
2023-03-12T08:32:20.275Z,99344.84
2023-03-12T08:34:49.242Z,99341.11
2023-03-12T08:37:18.500Z,99347.19
2023-03-12T08:39:47.773Z,99348.59
2023-03-12T08:42:16.841Z,99345.67
2023-03-12T08:44:46.315Z,99353.02
2023-03-12T08:47:15.808Z,99351.41
2023-03-12T08:49:44.998Z,99354.11
2023-03-12T08:52:14.613Z,99354.40
2023-03-12T08:54:43.549Z,99356.02
2023-03-12T08:57:12.843Z,99358.55
2023-03-12T08:59:42.378Z,99366.92
2023-03-12T09:02:14.906Z,99370.32
2023-03-12T09:04:47.997Z,99366.19
2023-03-12T09:07:22.775Z,99361.27
2023-03-12T09:09:52.145Z,99375.27
2023-03-12T09:12:21.488Z,99377.17
2023-03-12T09:15:02.897Z,99381.63
2023-03-12T09:17:33.409Z,99386.90
2023-03-12T09:20:02.298Z,99385.11
2023-03-12T09:22:31.753Z,99382.23
2023-03-12T09:25:00.791Z,99388.41
2023-03-12T09:27:30.381Z,99387.66
2023-03-12T09:30:01.139Z,99393.09
2023-03-12T09:32:30.909Z,99390.53
2023-03-12T09:35:00.303Z,99395.88
2023-03-12T09:37:30.156Z,99404.08
2023-03-12T09:40:00.419Z,99409.84
2023-03-12T09:42:40.184Z,99412.39
2023-03-12T09:45:22.530Z,99417.67
2023-03-12T09:47:54.730Z,99413.77
2023-03-12T09:50:41.752Z,99414.77
2023-03-12T09:53:42.061Z,99418.38
2023-03-12T09:56:15.313Z,99424.98
2023-03-12T09:58:48.922Z,99429.41
2023-03-12T10:01:42.769Z,99427.16
2023-03-12T10:04:32.097Z,99429.86
2023-03-12T10:07:04.097Z,99428.10
2023-03-12T10:09:58.383Z,99432.09
2023-03-12T10:12:33.009Z,99436.61
2023-03-12T10:15:14.265Z,99433.73
2023-03-12T10:17:46.679Z,99435.77
2023-03-12T10:20:54.534Z,99436.10
2023-03-12T10:23:47.881Z,99437.27
2023-03-12T10:26:24.352Z,99441.38
2023-03-12T10:29:12.266Z,99447.19
2023-03-12T10:32:11.566Z,99452.91
2023-03-12T10:34:48.766Z,99447.64
2023-03-12T10:37:47.390Z,99453.20
2023-03-12T10:40:20.133Z,99453.34
2023-03-12T10:42:49.346Z,99462.33
2023-03-12T10:45:43.060Z,99462.69
2023-03-12T10:48:20.757Z,99462.77
2023-03-12T10:51:12.191Z,99467.40
2023-03-12T10:53:45.081Z,99473.11
2023-03-12T10:56:21.191Z,99471.81
2023-03-12T10:58:53.155Z,99469.77
2023-03-12T11:01:24.230Z,99480.63
2023-03-12T11:04:10.015Z,99479.92
2023-03-12T11:06:39.146Z,99480.71
2023-03-12T11:09:20.944Z,99484.96
2023-03-12T11:11:51.503Z,99487.38
2023-03-12T11:14:27.844Z,99491.47
2023-03-12T11:16:58.220Z,99491.84
2023-03-12T11:19:29.697Z,99491.67
2023-03-12T11:22:03.806Z,99481.09
2023-03-12T11:24:33.110Z,99488.59
2023-03-12T11:27:17.971Z,99487.30
2023-03-12T11:29:51.294Z,99500.84
2023-03-12T11:32:38.362Z,99495.01
2023-03-12T11:35:12.549Z,99497.80
2023-03-12T11:38:02.209Z,99499.36
2023-03-12T11:40:40.818Z,99497.14
2023-03-12T11:43:46.451Z,99496.58
2023-03-12T11:46:28.326Z,99500.15
2023-03-12T11:49:06.739Z,99503.04
2023-03-12T11:51:45.547Z,99504.38
2023-03-12T11:54:26.804Z,99500.07
2023-03-12T11:57:25.094Z,99506.75
2023-03-12T12:00:18.007Z,99503.56
2023-03-12T12:03:16.204Z,99506.04
2023-03-12T12:06:00.762Z,99509.68
2023-03-12T12:08:45.613Z,99515.96
2023-03-12T12:11:45.918Z,99521.39
2023-03-12T12:14:44.215Z,99519.86
2023-03-12T12:17:19.517Z,99519.73
2023-03-12T12:20:11.201Z,99519.52
2023-03-12T12:23:29.257Z,99517.94
2023-03-12T12:26:09.780Z,99518.56
2023-03-12T12:29:00.659Z,99525.05
2023-03-12T12:31:50.773Z,99524.36
2023-03-12T12:34:45.901Z,99527.92
2023-03-12T12:37:31.367Z,99534.46
2023-03-12T12:40:19.418Z,99530.98
2023-03-12T12:43:05.170Z,99539.25
2023-03-12T12:45:36.821Z,99537.36
2023-03-12T12:48:24.172Z,99543.72
2023-03-12T12:50:56.300Z,99540.73
2023-03-12T12:54:00.666Z,99539.44
2023-03-12T12:57:01.649Z,99538.20
2023-03-12T12:59:38.223Z,99532.25
2023-03-12T13:02:19.962Z,99534.61
2023-03-12T13:04:49.707Z,99537.46
2023-03-12T13:07:22.264Z,99545.40
2023-03-12T13:09:54.270Z,99540.52
2023-03-12T13:12:26.577Z,99547.90
2023-03-12T13:14:58.112Z,99548.33
2023-03-12T13:17:36.500Z,99549.00
2023-03-12T13:20:11.600Z,99549.90
2023-03-12T13:23:12.198Z,99557.80
2023-03-12T13:25:49.775Z,99556.62
2023-03-12T13:28:36.928Z,99556.00
2023-03-12T13:31:24.828Z,99557.46
2023-03-12T13:34:20.383Z,99566.06
2023-03-12T13:36:53.776Z,99569.88
2023-03-12T13:39:36.758Z,99569.16
2023-03-12T13:42:24.238Z,99574.80
2023-03-12T13:44:54.454Z,99572.07
2023-03-12T13:47:32.821Z,99574.98
2023-03-12T13:50:16.035Z,99582.08
2023-03-12T13:53:07.160Z,99587.72
2023-03-12T13:55:40.244Z,99593.39
2023-03-12T13:58:21.654Z,99599.40
2023-03-12T14:01:01.469Z,99600.55
2023-03-12T14:03:41.210Z,99597.58
2023-03-12T14:06:13.914Z,99603.32
2023-03-12T14:09:25.049Z,99603.89
2023-03-12T14:11:57.677Z,99604.89
2023-03-12T14:14:33.268Z,99616.95
2023-03-12T14:17:05.229Z,99617.20
2023-03-12T14:19:37.204Z,99618.20
2023-03-12T14:22:08.782Z,99614.43
2023-03-12T14:25:02.500Z,99614.90
2023-03-12T14:27:34.255Z,99612.23
2023-03-12T14:30:25.929Z,99614.09
2023-03-12T14:33:01.455Z,99617.45
2023-03-12T14:35:38.023Z,99617.25
2023-03-12T14:38:35.046Z,99615.59
2023-03-12T14:41:16.207Z,99611.15
2023-03-12T14:43:46.666Z,99617.26
2023-03-12T14:46:23.733Z,99621.84
2023-03-12T14:48:57.882Z,99621.57
2023-03-12T14:51:32.171Z,99618.16
2023-03-12T14:54:04.261Z,99619.70
2023-03-12T14:56:36.561Z,99625.27
2023-03-12T14:59:21.655Z,99618.80
2023-03-12T15:01:51.370Z,99623.59
2023-03-12T15:04:24.090Z,99627.76
2023-03-12T15:07:04.738Z,99629.78
2023-03-12T15:09:37.068Z,99634.83
2023-03-12T15:12:09.460Z,99628.48
2023-03-12T15:14:43.539Z,99630.94
2023-03-12T15:17:19.757Z,99631.20
2023-03-12T15:19:50.915Z,99635.33
2023-03-12T15:22:24.899Z,99633.98
2023-03-12T15:24:55.059Z,99635.52
2023-03-12T15:27:31.171Z,99638.53
2023-03-12T15:30:02.137Z,99641.60
2023-03-12T15:32:32.428Z,99642.52
2023-03-12T15:35:14.756Z,99646.01
2023-03-12T15:37:53.973Z,99649.30
2023-03-12T15:40:26.623Z,99649.18
2023-03-12T15:43:03.889Z,99644.88
2023-03-12T15:45:39.443Z,99639.16
2023-03-12T15:48:29.859Z,99639.54
2023-03-12T15:51:00.150Z,99643.95
2023-03-12T15:53:34.431Z,99646.21
2023-03-12T15:56:24.450Z,99647.16
2023-03-12T15:59:06.163Z,99647.20
2023-03-12T16:01:54.143Z,99649.59
2023-03-12T16:04:24.954Z,99654.21
2023-03-12T16:06:55.286Z,99653.16
2023-03-12T16:09:30.823Z,99654.67
2023-03-12T16:12:00.152Z,99655.03
2023-03-12T16:14:33.343Z,99656.48
2023-03-12T16:17:03.371Z,99649.58
2023-03-12T16:19:36.523Z,99647.30
2023-03-12T16:22:06.250Z,99648.70
2023-03-12T16:24:35.760Z,99649.07
2023-03-12T16:27:08.203Z,99647.70
2023-03-12T16:29:39.539Z,99651.27
2023-03-12T16:32:14.454Z,99653.50
2023-03-12T16:34:45.666Z,99656.18
2023-03-12T16:37:15.132Z,99657.25
2023-03-12T16:39:46.618Z,99653.07
2023-03-12T16:42:18.446Z,99653.16
2023-03-12T16:44:47.999Z,99656.08
2023-03-12T16:47:17.477Z,99663.07
2023-03-12T16:49:46.048Z,99666.54
2023-03-12T16:52:20.925Z,99670.87
2023-03-12T16:54:50.573Z,99674.39
2023-03-12T16:57:30.317Z,99676.12
2023-03-12T17:00:01.422Z,99676.26
2023-03-12T17:02:30.163Z,99674.86
2023-03-12T17:04:58.868Z,99673.11
2023-03-12T17:07:27.543Z,99671.98
2023-03-12T17:09:56.415Z,99672.34
2023-03-12T17:12:33.948Z,99677.15
2023-03-12T17:15:05.561Z,99676.02
2023-03-12T17:17:33.796Z,99680.75
2023-03-12T17:20:02.171Z,99682.46
2023-03-12T17:22:30.451Z,99689.55
2023-03-12T17:24:58.865Z,99689.05
2023-03-12T17:27:27.172Z,99693.71
2023-03-12T17:29:55.698Z,99694.71
2023-03-12T17:32:24.306Z,99694.48
2023-03-12T17:34:57.200Z,99699.61
2023-03-12T17:37:25.864Z,99704.92
2023-03-12T17:39:54.346Z,99706.76
2023-03-12T17:42:22.719Z,99706.77
2023-03-12T17:44:52.589Z,99708.05
2023-03-12T17:47:24.632Z,99699.48
2023-03-12T17:49:53.195Z,99700.55
2023-03-12T17:52:21.632Z,99699.19
2023-03-12T17:54:50.060Z,99697.98
2023-03-12T17:57:18.644Z,99695.80
2023-03-12T17:59:47.736Z,99696.33
2023-03-12T18:02:16.468Z,99690.41
2023-03-12T18:04:45.214Z,99686.95
2023-03-12T18:07:13.724Z,99683.59
2023-03-12T18:09:42.379Z,99683.06
2023-03-12T18:12:13.227Z,99688.59
2023-03-12T18:14:41.643Z,99684.60
2023-03-12T18:17:10.134Z,99687.26
2023-03-12T18:19:38.437Z,99682.25
2023-03-12T18:22:07.414Z,99676.27
2023-03-12T18:24:36.566Z,99672.66
2023-03-12T18:27:05.008Z,99668.85
2023-03-12T18:29:35.728Z,99670.04
2023-03-12T18:32:04.694Z,99678.45
2023-03-12T18:34:33.861Z,99684.14
2023-03-12T18:37:02.436Z,99690.98
2023-03-12T18:39:31.129Z,99693.10
2023-03-12T18:41:59.724Z,99698.63
2023-03-12T18:44:28.194Z,99707.55
2023-03-12T18:46:56.649Z,99706.74
2023-03-12T18:49:26.211Z,99708.25
2023-03-12T18:51:56.215Z,99714.20
2023-03-12T18:54:24.986Z,99715.13
2023-03-12T18:56:53.410Z,99724.05
2023-03-12T18:59:21.958Z,99732.55
2023-03-12T19:01:50.312Z,99740.80
2023-03-12T19:04:19.914Z,99749.90
2023-03-12T19:06:51.582Z,99754.55
2023-03-12T19:09:21.183Z,99755.93
2023-03-12T19:11:50.537Z,99756.30
2023-03-12T19:14:19.228Z,99744.95
2023-03-12T19:16:47.544Z,99743.63
2023-03-12T19:19:17.252Z,99745.65
2023-03-12T19:21:45.722Z,99745.47
2023-03-12T19:24:14.471Z,99741.55
2023-03-12T19:26:42.815Z,99740.64
2023-03-12T19:29:11.155Z,99744.52
2023-03-12T19:31:39.475Z,99749.11
2023-03-12T19:34:07.909Z,99755.23
2023-03-12T19:36:36.154Z,99759.19
2023-03-12T19:39:11.962Z,99752.81
2023-03-12T19:41:48.181Z,99754.34
2023-03-12T19:44:16.662Z,99758.96
2023-03-12T19:46:47.338Z,99755.95
2023-03-12T19:49:18.005Z,99758.64
2023-03-12T19:51:46.288Z,99757.10
2023-03-12T19:54:14.975Z,99748.41
2023-03-12T19:56:43.378Z,99753.20
2023-03-12T19:59:11.750Z,99747.95
2023-03-12T20:01:43.080Z,99749.91
2023-03-12T20:04:12.775Z,99749.11
2023-03-12T20:06:41.117Z,99740.48
2023-03-12T20:09:09.407Z,99738.95
2023-03-12T20:11:38.753Z,99734.05
2023-03-12T20:14:07.462Z,99730.41
2023-03-12T20:16:36.434Z,99729.60
2023-03-12T20:19:04.896Z,99729.41
2023-03-12T20:21:33.335Z,99733.88
2023-03-12T20:24:02.531Z,99730.73
2023-03-12T20:26:31.454Z,99722.70
2023-03-12T20:29:02.833Z,99713.42
2023-03-12T20:31:31.430Z,99709.14
2023-03-12T20:33:59.986Z,99703.09
2023-03-12T20:36:28.409Z,99704.21
2023-03-12T20:38:56.688Z,99698.35
2023-03-12T20:41:25.147Z,99698.08
2023-03-12T20:43:57.042Z,99692.58
2023-03-12T20:46:25.647Z,99691.01
2023-03-12T20:48:56.240Z,99687.84
2023-03-12T20:51:25.196Z,99690.69
2023-03-12T20:53:53.619Z,99693.67
2023-03-12T20:56:22.026Z,99697.27
2023-03-12T20:58:50.748Z,99702.25
2023-03-12T21:01:19.213Z,99712.39
2023-03-12T21:03:47.432Z,99712.42
2023-03-12T21:06:15.906Z,99711.85
2023-03-12T21:08:44.991Z,99707.05
2023-03-12T21:11:13.305Z,99711.31
2023-03-12T21:13:41.894Z,99705.36
2023-03-12T21:16:12.886Z,99704.35
2023-03-12T21:18:41.651Z,99708.25
2023-03-12T21:21:10.258Z,99706.00
2023-03-12T21:23:38.994Z,99703.02
2023-03-12T21:26:09.606Z,99699.19
2023-03-12T21:28:38.555Z,99695.14
2023-03-12T21:31:13.462Z,99690.84
2023-03-12T21:33:42.325Z,99693.43
2023-03-12T21:36:13.363Z,99697.04
2023-03-12T21:38:45.384Z,99691.83
2023-03-12T21:41:16.501Z,99684.15
2023-03-12T21:43:46.482Z,99687.10
2023-03-12T21:46:20.826Z,99679.29
2023-03-12T21:48:49.211Z,99683.78
2023-03-12T21:51:18.512Z,99676.45
2023-03-12T21:53:47.746Z,99669.01
2023-03-12T21:56:16.790Z,99661.40
2023-03-12T21:58:45.798Z,99654.92
2023-03-12T22:01:16.842Z,99647.92
2023-03-12T22:03:47.205Z,99640.27
2023-03-12T22:06:17.265Z,99638.10
2023-03-12T22:08:49.879Z,99637.27
2023-03-12T22:11:18.693Z,99637.70
2023-03-12T22:13:48.080Z,99637.30
2023-03-12T22:16:17.393Z,99638.41
2023-03-12T22:18:47.693Z,99632.88
2023-03-12T22:21:22.324Z,99627.50
2023-03-12T22:23:57.917Z,99624.26
2023-03-12T22:26:27.170Z,99615.13
2023-03-12T22:28:58.119Z,99608.86
2023-03-12T22:31:29.036Z,99601.90
2023-03-12T22:33:58.282Z,99599.14
2023-03-12T22:36:28.326Z,99594.94
2023-03-12T22:38:58.293Z,99590.39
2023-03-12T22:41:30.400Z,99594.50
2023-03-12T22:44:05.542Z,99591.76
2023-03-12T22:46:34.821Z,99591.39
2023-03-12T22:49:05.746Z,99603.17
2023-03-12T22:51:34.247Z,99597.54
2023-03-12T22:54:03.434Z,99595.90
2023-03-12T22:56:32.384Z,99592.13
2023-03-12T22:59:01.298Z,99591.08
2023-03-12T23:01:30.459Z,99596.77
2023-03-12T23:04:00.976Z,99587.70
2023-03-12T23:06:30.345Z,99579.36
2023-03-12T23:08:59.931Z,99576.66
2023-03-12T23:11:30.254Z,99575.99
2023-03-12T23:13:59.496Z,99575.45
2023-03-12T23:16:28.755Z,99577.62
2023-03-12T23:18:59.190Z,99575.77
2023-03-12T23:21:28.628Z,99580.21
2023-03-12T23:23:59.822Z,99579.73
2023-03-12T23:26:29.405Z,99581.89
2023-03-12T23:29:00.076Z,99581.65
2023-03-12T23:31:30.365Z,99579.66
2023-03-12T23:33:59.930Z,99574.77
2023-03-12T23:36:28.502Z,99573.54
2023-03-12T23:38:57.941Z,99576.05
2023-03-12T23:41:31.656Z,99580.80
2023-03-12T23:44:01.215Z,99577.52
2023-03-12T23:46:30.850Z,99575.65
2023-03-12T23:49:00.181Z,99588.14
2023-03-12T23:51:31.364Z,99587.85
2023-03-12T23:54:05.738Z,99579.92
2023-03-12T23:56:38.119Z,99584.04
2023-03-12T23:59:09.490Z,99588.30
